Time;durP1;ratioP1;P1;durP2;ratioP2;P2;SDS_P1;SDS_P2;PMS_P1;PMS_P2;Temp;Humidity;BMP_temperature;BMP_pressure;BME280_temperature;BME280_humidity;BME280_pressure;Samples;Min_cycle;Max_cycle;Signal;HPM_P1;HPM_P2
2022/06/21 00:00:26;;;;;;;8.65;2.78;;;;;;;17.33;69.11;98341.72;5030239;28;20517;-51
2022/06/21 00:02:56;;;;;;;15.18;3.45;;;;;;;17.35;69.36;98357.38;5030512;28;20041;-47
2022/06/21 00:05:34;;;;;;;15.90;3.97;;;;;;;17.34;69.71;98355.69;5062463;28;20037;-48
2022/06/21 00:08:05;;;;;;;17.88;3.70;;;;;;;17.33;69.63;98349.59;5062266;28;20048;-48
2022/06/21 00:10:34;;;;;;;10.85;3.78;;;;;;;17.32;70.19;98345.31;5032528;28;20050;-51
2022/06/21 00:13:08;;;;;;;10.90;3.08;;;;;;;17.31;70.31;98340.19;5009784;28;20049;-49
2022/06/21 00:15:34;;;;;;;11.23;3.10;;;;;;;17.31;70.42;98337.56;5031626;28;20086;-48
2022/06/21 00:18:00;;;;;;;12.55;3.25;;;;;;;17.23;70.30;98329.47;5035510;28;20049;-50
2022/06/21 00:20:26;;;;;;;10.13;3.40;;;;;;;17.29;70.30;98345.56;5044156;28;20050;-48
2022/06/21 00:22:51;;;;;;;13.85;3.97;;;;;;;17.27;70.33;98336.16;5036871;28;20049;-51
2022/06/21 00:25:21;;;;;;;13.60;3.67;;;;;;;17.28;70.31;98333.38;5029675;28;20077;-51
2022/06/21 00:27:47;;;;;;;13.30;4.00;;;;;;;17.25;70.70;98331.03;5046735;28;20123;-50
2022/06/21 00:30:14;;;;;;;8.63;3.70;;;;;;;17.24;70.58;98318.84;5048889;28;20424;-49
2022/06/21 00:32:41;;;;;;;7.53;3.33;;;;;;;17.24;70.34;98321.47;5031256;28;20425;-49
2022/06/21 00:35:12;;;;;;;11.57;3.35;;;;;;;17.26;70.43;98334.50;5032990;28;20033;-51
2022/06/21 00:37:39;;;;;;;9.73;3.60;;;;;;;17.15;70.32;98313.53;5008715;28;20088;-50
2022/06/21 00:40:17;;;;;;;12.75;4.05;;;;;;;17.22;70.55;98322.56;5044674;28;20132;-52
2022/06/21 00:42:45;;;;;;;11.77;3.38;;;;;;;17.15;70.71;98311.75;5048180;28;20045;-53
2022/06/21 00:45:35;;;;;;;8.90;3.35;;;;;;;17.22;70.72;98322.56;5000749;28;20038;-48
2022/06/21 00:48:10;;;;;;;9.98;4.30;;;;;;;17.20;70.61;98319.25;5037307;28;20095;-51
2022/06/21 00:50:40;;;;;;;13.70;3.78;;;;;;;17.21;70.58;98328.78;5036413;28;20037;-48
2022/06/21 00:53:31;;;;;;;10.75;3.50;;;;;;;17.20;71.42;98327.13;5035209;28;20029;-49
2022/06/21 00:56:06;;;;;;;9.48;3.75;;;;;;;17.21;70.91;98327.00;5029957;28;20030;-50
2022/06/21 00:58:32;;;;;;;9.63;4.03;;;;;;;17.21;71.05;98334.88;5045098;28;20413;-49
2022/06/21 01:01:05;;;;;;;13.63;4.47;;;;;;;17.15;70.86;98324.03;5044763;28;20068;-49
2022/06/21 01:03:41;;;;;;;10.70;4.00;;;;;;;17.21;70.89;98329.63;5028191;28;20037;-50
2022/06/21 01:06:12;;;;;;;9.18;3.80;;;;;;;17.21;71.20;98336.66;5028492;28;20106;-49
2022/06/21 01:08:44;;;;;;;11.57;3.67;;;;;;;17.21;71.07;98332.25;5057562;28;20124;-52
2022/06/21 01:11:16;;;;;;;12.85;3.80;;;;;;;17.16;71.52;98326.56;5061409;28;20049;-50
2022/06/21 01:13:46;;;;;;;13.18;3.38;;;;;;;17.21;71.71;98336.66;5037943;28;20048;-48
2022/06/21 01:16:13;;;;;;;9.30;3.58;;;;;;;17.20;71.80;98324.50;5046799;28;20091;-47
2022/06/21 01:18:41;;;;;;;10.75;3.35;;;;;;;17.22;71.77;98323.38;5048665;28;20033;-48
2022/06/21 01:21:07;;;;;;;10.32;3.80;;;;;;;17.22;71.69;98317.28;5044650;28;20041;-48
2022/06/21 01:24:02;;;;;;;9.73;4.07;;;;;;;17.25;71.69;98307.38;5030458;28;20063;-50
2022/06/21 01:26:41;;;;;;;14.05;3.50;;;;;;;17.27;71.59;98300.19;5028665;28;20568;-49
2022/06/21 01:29:14;;;;;;;13.05;3.53;;;;;;;17.15;71.36;98274.16;5030991;28;20041;-48
2022/06/21 01:31:41;;;;;;;8.05;3.88;;;;;;;17.16;71.48;98266.16;5034253;28;20037;-47
2022/06/21 01:34:18;;;;;;;8.00;3.80;;;;;;;17.30;70.69;98278.09;5031382;28;20045;-50
2022/06/21 01:36:47;;;;;;;12.77;3.70;;;;;;;17.30;70.35;98270.22;5028550;28;20037;-49
2022/06/21 01:39:26;;;;;;;13.68;4.32;;;;;;;17.28;70.67;98257.22;5030888;28;20549;-50
2022/06/21 01:41:56;;;;;;;13.25;4.00;;;;;;;17.16;70.98;98234.63;5028350;28;20443;-51
2022/06/21 01:44:29;;;;;;;15.57;3.95;;;;;;;17.25;71.71;98256.66;5043016;28;20472;-47
2022/06/21 01:46:56;;;;;;;13.77;4.15;;;;;;;17.23;72.20;98253.31;5040436;28;20041;-47
2022/06/21 01:49:26;;;;;;;10.88;3.97;;;;;;;17.20;72.67;98249.16;5061092;28;20037;-50
2022/06/21 01:51:51;;;;;;;;;;;;;;;17.20;72.87;98253.56;5030101;28;20042;-48
2022/06/21 01:54:19;;;;;;;10.18;3.50;;;;;;;17.18;72.73;98252.84;5031997;28;19917;-48
2022/06/21 01:56:46;;;;;;;13.65;3.72;;;;;;;17.16;72.99;98254.81;5035436;28;20055;-49
2022/06/21 01:59:15;;;;;;;10.85;3.70;;;;;;;17.16;72.79;98245.13;5040484;28;20049;-48
2022/06/21 02:02:01;;;;;;;6.93;3.20;;;;;;;17.16;73.40;98258.25;5036771;28;20037;-51
2022/06/21 02:04:30;;;;;;;10.00;3.88;;;;;;;17.07;73.68;98232.75;5033096;28;20041;-49
2022/06/21 02:07:00;;;;;;;12.43;3.75;;;;;;;17.15;73.82;98253.97;5036524;28;20132;-49
2022/06/21 02:09:29;;;;;;;9.95;3.67;;;;;;;17.16;73.89;98257.44;5011379;28;20045;-49
2022/06/21 02:12:01;;;;;;;8.70;3.42;;;;;;;17.16;74.05;98245.13;5045800;28;20623;-48
2022/06/21 02:14:30;;;;;;;9.02;3.50;;;;;;;17.17;74.66;98261.69;5051156;28;20040;-51
2022/06/21 02:17:02;;;;;;;11.13;3.42;;;;;;;17.17;74.68;98259.06;5040520;28;20513;-54
2022/06/21 02:19:52;;;;;;;8.20;3.25;;;;;;;17.17;75.04;98265.16;5032388;28;20481;-47
2022/06/21 02:22:23;;;;;;;9.30;3.58;;;;;;;17.18;75.13;98271.25;5035279;28;20115;-48
2022/06/21 02:24:50;;;;;;;10.73;4.00;;;;;;;17.09;75.30;98262.34;5031276;28;20044;-50
2022/06/21 02:27:18;;;;;;;8.77;4.55;;;;;;;17.18;75.74;98277.34;5040227;28;20480;-49
2022/06/21 02:29:46;;;;;;;10.77;4.97;;;;;;;17.17;75.68;98274.81;5039363;28;20044;-50
2022/06/21 02:32:18;;;;;;;9.43;5.00;;;;;;;17.07;76.14;98259.00;5051198;28;20063;-48
2022/06/21 02:34:44;;;;;;;9.45;5.82;;;;;;;17.18;76.40;98282.59;5052599;28;20120;-48
2022/06/21 02:37:13;;;;;;;10.30;5.43;;;;;;;17.19;76.93;98280.78;5051347;28;20056;-50
2022/06/21 02:39:38;;;;;;;8.85;4.68;;;;;;;17.18;77.45;98276.50;5034677;28;20398;-50
2022/06/21 02:42:11;;;;;;;12.07;5.20;;;;;;;17.16;78.48;98281.91;5030732;28;20052;-47
2022/06/21 02:44:47;;;;;;;8.68;4.80;;;;;;;17.14;78.85;98286.44;5027356;28;20425;-48
2022/06/21 02:47:37;;;;;;;8.27;5.05;;;;;;;17.13;80.29;98294.44;5014801;28;20049;-49
2022/06/21 02:50:13;;;;;;;7.85;5.07;;;;;;;17.13;80.38;98289.19;5027881;28;20071;-48
2022/06/21 02:52:40;;;;;;;5.75;4.40;;;;;;;17.11;80.73;98291.13;5011030;28;20434;-48
2022/06/21 02:55:09;;;;;;;9.00;3.75;;;;;;;17.08;80.99;98294.81;5030304;28;20037;-49
2022/06/21 02:57:41;;;;;;;12.38;5.00;;;;;;;17.06;81.43;98288.03;5031868;28;20041;-49
2022/06/21 03:00:12;;;;;;;7.68;4.25;;;;;;;17.05;81.35;98295.09;5030857;28;20081;-47
2022/06/21 03:02:38;;;;;;;8.20;4.10;;;;;;;17.04;81.46;98282.06;5063940;28;20041;-47
2022/06/21 03:05:07;;;;;;;9.90;4.43;;;;;;;16.98;82.28;98275.53;5030923;28;20064;-49
2022/06/21 03:07:38;;;;;;;6.53;4.05;;;;;;;17.03;82.52;98280.41;5047427;28;20056;-53
2022/06/21 03:10:06;;;;;;;9.57;4.20;;;;;;;17.01;82.51;98277.09;5063603;28;20110;-48
2022/06/21 03:12:34;;;;;;;9.30;4.23;;;;;;;17.01;83.27;98279.72;5029727;28;20072;-46
2022/06/21 03:15:08;;;;;;;9.18;3.30;;;;;;;16.98;82.96;98282.56;5029802;28;20053;-46
2022/06/21 03:17:41;;;;;;;7.30;3.42;;;;;;;16.79;80.06;98257.88;5030572;28;20080;-48
2022/06/21 03:20:13;;;;;;;8.43;4.15;;;;;;;16.83;78.53;98267.13;5030462;28;20037;-46
2022/06/21 03:22:40;;;;;;;9.43;3.85;;;;;;;16.81;77.56;98270.84;5030023;28;20120;-48
2022/06/21 03:25:18;;;;;;;6.22;3.47;;;;;;;16.79;76.69;98263.13;5030054;28;20046;-48
2022/06/21 03:27:55;;;;;;;11.27;3.20;;;;;;;16.78;76.22;98264.06;5031484;28;20110;-48
2022/06/21 03:30:25;;;;;;;6.80;3.47;;;;;;;16.83;76.73;98255.81;5019366;28;20114;-50
2022/06/21 03:32:53;;;;;;;5.78;3.30;;;;;;;16.88;76.67;98262.34;5029996;28;20060;-48
2022/06/21 03:35:19;;;;;;;10.15;4.15;;;;;;;16.90;76.44;98256.97;5030453;28;20037;-48
2022/06/21 03:37:45;;;;;;;8.18;3.50;;;;;;;16.93;77.72;98260.16;5045915;28;20136;-49
2022/06/21 03:43:08;;;;;;;12.77;4.25;;;;;;;17.04;77.59;98258.44;5029937;28;20421;-47
2022/06/21 03:45:37;;;;;;;13.25;3.72;;;;;;;17.09;78.12;98264.97;5063262;28;20045;-47
2022/06/21 03:48:16;;;;;;;6.45;3.67;;;;;;;17.15;79.07;98268.88;5045667;28;20045;-51
2022/06/21 03:50:49;;;;;;;6.78;3.50;;;;;;;17.10;79.46;98235.13;5049949;28;20051;-51
2022/06/21 03:53:23;;;;;;;7.05;3.90;;;;;;;17.29;79.76;98245.75;5013243;28;20521;-51
2022/06/21 03:55:56;;;;;;;10.55;3.83;;;;;;;17.38;80.14;98254.63;5044794;28;20032;-49
2022/06/21 03:58:37;;;;;;;10.80;3.92;;;;;;;17.38;80.65;98240.69;5037392;28;20418;-47
2022/06/21 04:01:12;;;;;;;8.77;3.75;;;;;;;17.55;80.77;98246.16;5046163;28;20546;-53
2022/06/21 04:03:58;;;;;;;10.57;4.47;;;;;;;17.65;79.71;98252.31;5040646;28;20041;-51
2022/06/21 04:06:28;;;;;;;9.85;4.45;;;;;;;17.72;80.39;98236.84;5045406;28;20052;-48
2022/06/21 04:09:04;;;;;;;9.18;3.05;;;;;;;17.77;79.31;98232.03;5030085;28;20045;-53
2022/06/21 04:11:36;;;;;;;9.27;4.45;;;;;;;17.87;76.93;98226.81;5029463;28;20041;-52
2022/06/21 04:14:29;;;;;;;8.13;3.30;;;;;;;17.90;74.93;98219.47;5015946;28;20056;-51
2022/06/21 04:17:02;;;;;;;5.18;2.42;;;;;;;17.80;73.81;98202.84;5044914;28;20076;-50
2022/06/21 04:19:39;;;;;;;7.85;3.20;;;;;;;17.88;72.01;98217.97;5041234;28;20048;-50
2022/06/21 04:22:26;;;;;;;5.18;3.13;;;;;;;17.90;72.67;98216.84;5040437;28;20041;-49
2022/06/21 04:24:59;;;;;;;5.75;3.05;;;;;;;17.95;72.92;98209.38;5026274;28;20046;-49
2022/06/21 04:27:28;;;;;;;6.05;3.30;;;;;;;18.05;73.17;98206.78;5057702;28;20033;-47
2022/06/21 04:30:03;;;;;;;8.38;3.00;;;;;;;18.19;73.06;98212.50;5022454;28;20095;-48
2022/06/21 04:32:38;;;;;;;6.82;3.35;;;;;;;18.30;72.91;98216.81;5032888;28;20081;-48
2022/06/21 04:35:16;;;;;;;8.65;3.70;;;;;;;18.35;73.07;98208.50;5036301;28;20036;-46
2022/06/21 04:37:47;;;;;;;9.13;3.30;;;;;;;18.40;70.75;98203.66;5030701;28;20076;-47
2022/06/21 04:40:19;;;;;;;6.75;3.10;;;;;;;18.52;68.83;98194.66;5037142;28;20424;-49
2022/06/21 04:42:56;;;;;;;8.52;2.75;;;;;;;18.63;68.37;98190.09;5031010;28;20512;-46
2022/06/21 04:45:28;;;;;;;12.13;3.40;;;;;;;18.65;67.33;98182.06;5028749;28;20548;-48
2022/06/21 04:48:09;;;;;;;7.40;3.50;;;;;;;18.63;66.63;98173.50;5008656;28;20092;-51
2022/06/21 04:50:46;;;;;;;11.70;4.63;;;;;;;18.68;67.09;98176.53;5046208;28;20045;-47
2022/06/21 04:53:19;;;;;;;12.75;4.63;;;;;;;18.61;66.42;98168.34;5061497;28;20037;-48
2022/06/21 04:56:15;;;;;;;11.57;4.70;;;;;;;18.75;65.89;98193.41;5061096;28;20045;-48
2022/06/21 04:58:42;;;;;;;10.65;4.60;;;;;;;18.86;66.13;98190.63;5033670;28;20049;-50
2022/06/21 05:03:54;;;;;;;13.43;5.88;;;;;;;19.20;66.47;98198.06;5040822;28;20427;-48
2022/06/21 05:06:21;;;;;;;12.45;5.13;;;;;;;19.31;65.85;98200.53;5058587;28;20049;-47
2022/06/21 05:08:47;;;;;;;15.73;5.43;;;;;;;19.46;66.11;98201.75;5049457;28;20078;-49
2022/06/21 05:11:13;;;;;;;11.82;4.75;;;;;;;19.58;65.79;98197.94;5041222;28;20087;-50
2022/06/21 05:13:43;;;;;;;13.65;4.80;;;;;;;19.71;64.08;98187.91;5033826;28;20041;-48
2022/06/21 05:16:21;;;;;;;12.07;4.63;;;;;;;19.70;62.60;98190.69;5040799;28;20060;-48
2022/06/21 05:19:02;;;;;;;10.40;5.25;;;;;;;19.48;61.37;98167.31;5029402;28;20041;-48
2022/06/21 05:21:41;;;;;;;8.95;4.70;;;;;;;19.62;60.95;98186.16;5008197;28;20078;-52
2022/06/21 05:24:09;;;;;;;12.68;5.28;;;;;;;19.62;60.86;98185.31;5041861;28;20038;-48
2022/06/21 05:26:42;;;;;;;10.40;4.05;;;;;;;19.61;60.81;98176.56;5056043;28;20041;-50
2022/06/21 05:29:17;;;;;;;11.18;4.93;;;;;;;19.49;60.21;98163.72;5032424;28;20041;-50
2022/06/21 05:31:45;;;;;;;9.43;4.30;;;;;;;19.58;60.18;98184.75;5033980;28;20038;-49
2022/06/21 05:34:19;;;;;;;9.30;4.57;;;;;;;19.67;60.30;98193.63;5016176;28;20048;-50
2022/06/21 05:37:05;;;;;;;11.52;5.38;;;;;;;19.85;60.31;98187.41;5032323;28;20037;-49
2022/06/21 05:39:45;;;;;;;10.80;4.80;;;;;;;20.12;60.05;98191.81;5032291;28;20136;-51
2022/06/21 05:42:14;;;;;;;11.18;3.65;;;;;;;20.20;58.73;98197.16;5065510;28;20522;-50
2022/06/21 05:44:44;;;;;;;9.23;3.72;;;;;;;20.25;58.33;98197.56;5032729;28;20048;-45
2022/06/21 05:47:22;;;;;;;8.80;4.25;;;;;;;20.28;58.30;98189.34;5012493;28;20042;-50
2022/06/21 05:49:48;;;;;;;7.82;4.18;;;;;;;20.37;58.24;98187.66;5015588;28;20049;-51
2022/06/21 05:52:20;;;;;;;6.45;4.25;;;;;;;20.43;58.49;98183.56;5019648;28;20518;-52
2022/06/21 05:54:51;;;;;;;6.97;4.55;;;;;;;20.51;58.89;98184.50;5032251;28;20534;-50
2022/06/21 05:57:19;;;;;;;17.30;9.52;;;;;;;20.66;58.80;98176.84;5039462;28;20071;-50
2022/06/21 05:59:45;;;;;;;9.48;5.47;;;;;;;20.76;59.15;98179.41;5038680;28;20418;-49
2022/06/21 06:02:30;;;;;;;8.55;4.78;;;;;;;20.79;58.92;98179.91;5031834;28;20038;-51
2022/06/21 06:05:03;;;;;;;7.13;4.13;;;;;;;20.80;58.53;98178.09;5023039;28;20056;-51
2022/06/21 06:07:36;;;;;;;7.85;4.55;;;;;;;20.80;58.26;98163.09;5026107;28;20041;-49
2022/06/21 06:10:03;;;;;;;10.35;5.20;;;;;;;20.92;58.00;98155.75;5009158;28;20087;-47
2022/06/21 06:12:32;;;;;;;9.70;4.60;;;;;;;21.21;57.19;98160.75;5046384;28;20045;-48
2022/06/21 06:15:44;;;;;;;10.45;5.22;;;;;;;21.42;56.10;98167.31;5050394;28;20068;-47
2022/06/21 06:18:36;;;;;;;6.10;3.75;;;;;;;21.34;56.04;98169.91;5029105;28;20045;-50
2022/06/21 06:21:12;;;;;;;9.82;4.68;;;;;;;21.09;55.50;98176.03;5037389;28;20135;-47
2022/06/21 06:23:42;;;;;;;9.00;4.05;;;;;;;20.98;55.76;98171.81;5044342;28;20451;-50
2022/06/21 06:26:14;;;;;;;10.65;4.47;;;;;;;20.83;55.46;98175.97;5038535;28;20501;-53
2022/06/21 06:29:06;;;;;;;10.60;4.32;;;;;;;20.75;55.85;98186.50;5012387;28;20041;-53
2022/06/21 06:31:36;;;;;;;8.52;4.60;;;;;;;20.49;55.46;98183.81;5029139;28;20590;-55
2022/06/21 06:34:08;;;;;;;5.57;4.00;;;;;;;20.41;55.58;98185.56;5030638;28;20049;-48
2022/06/21 06:36:48;;;;;;;11.23;4.35;;;;;;;20.49;55.73;98183.81;5014776;28;20521;-47
2022/06/21 06:39:22;;;;;;;11.63;4.75;;;;;;;20.45;56.36;98184.25;5034247;28;20087;-47
2022/06/21 06:42:03;;;;;;;10.73;4.53;;;;;;;20.31;55.94;98185.59;5040834;28;20038;-53
2022/06/21 06:44:36;;;;;;;8.18;4.38;;;;;;;20.27;56.22;98181.56;5045164;28;20041;-51
2022/06/21 06:47:03;;;;;;;7.88;4.00;;;;;;;20.31;56.84;98188.25;5029441;28;20118;-49
2022/06/21 06:49:39;;;;;;;5.60;3.78;;;;;;;20.33;57.12;98196.00;5063880;28;20501;-48
2022/06/21 06:52:15;;;;;;;9.45;4.40;;;;;;;20.26;56.88;98198.38;5029660;28;20397;-49
2022/06/21 06:55:11;;;;;;;6.72;4.10;;;;;;;20.18;56.57;98191.22;5030893;28;20045;-51
2022/06/21 06:57:44;;;;;;;11.18;4.53;;;;;;;20.20;56.76;98194.53;5032172;28;20041;-50
2022/06/21 07:00:17;;;;;;;10.32;4.40;;;;;;;20.21;57.16;98183.00;5031777;28;20049;-48
2022/06/21 07:03:21;;;;;;;7.75;4.05;;;;;;;20.22;57.83;98199.66;5032058;28;20053;-50
2022/06/21 07:05:52;;;;;;;8.40;4.47;;;;;;;20.22;58.37;98195.22;5009696;28;20599;-47
2022/06/21 07:08:42;;;;;;;9.45;4.50;;;;;;;20.18;58.17;98191.22;5023520;28;20053;-48
2022/06/21 07:11:17;;;;;;;7.45;3.92;;;;;;;20.12;58.63;98193.63;5032001;28;20132;-49
2022/06/21 07:13:43;;;;;;;9.02;3.92;;;;;;;20.02;59.22;98192.84;5032146;28;20041;-51
2022/06/21 07:16:12;;;;;;;7.35;3.92;;;;;;;19.93;59.78;98181.41;5031685;28;20041;-53
2022/06/21 07:18:46;;;;;;;9.68;4.47;;;;;;;19.87;60.54;98174.91;5030470;28;20525;-49
2022/06/21 07:21:14;;;;;;;16.85;5.28;;;;;;;19.70;60.45;98149.31;5030632;28;20055;-46
2022/06/21 07:23:39;;;;;;;8.93;4.30;;;;;;;19.82;60.89;98165.78;5031548;28;20045;-48
2022/06/21 07:26:30;;;;;;;7.07;4.63;;;;;;;19.83;60.90;98160.38;5013668;28;20464;-47
2022/06/21 07:29:09;;;;;;;10.30;4.70;;;;;;;19.88;60.81;98165.19;5028434;28;20103;-49
2022/06/21 07:31:43;;;;;;;7.88;4.40;;;;;;;19.91;60.66;98151.69;5063080;28;20037;-51
2022/06/21 07:34:18;;;;;;;12.68;5.20;;;;;;;20.05;61.05;98167.00;5063208;28;20044;-50
2022/06/21 07:37:16;;;;;;;14.25;5.03;;;;;;;20.15;60.62;98159.03;5013744;28;20052;-48
2022/06/21 07:39:46;;;;;;;10.63;4.97;;;;;;;20.27;60.31;98165.75;5030855;28;20051;-48
2022/06/21 07:42:37;;;;;;;11.55;4.80;;;;;;;20.36;59.75;98167.50;5030067;28;20520;-48
2022/06/21 07:45:15;;;;;;;13.98;5.13;;;;;;;20.43;59.31;98162.44;5030307;28;20049;-49
2022/06/21 07:48:06;;;;;;;11.02;5.97;;;;;;;20.53;59.09;98158.75;5011492;28;20049;-50
2022/06/21 07:50:48;;;;;;;11.30;5.28;;;;;;;20.61;59.06;98152.72;4993600;28;20403;-47
2022/06/21 07:53:35;;;;;;;7.32;4.82;;;;;;;20.65;58.83;98151.44;5026426;28;20037;-50
2022/06/21 07:56:23;;;;;;;11.10;5.72;;;;;;;20.68;59.02;98149.28;5025111;28;20127;-51
2022/06/21 07:58:59;;;;;;;12.00;5.13;;;;;;;20.61;58.50;98150.06;4997399;28;20433;-51
2022/06/21 08:07:35;;;;;;;12.68;6.53;;;;;;;20.24;58.47;98155.50;5030404;28;20103;-48
2022/06/21 08:10:06;;;;;;;11.68;5.22;;;;;;;20.06;58.91;98150.19;5062124;28;20041;-52
2022/06/21 08:12:31;;;;;;;12.35;5.75;;;;;;;19.97;59.07;98159.00;5029052;28;20049;-49
2022/06/21 08:14:59;;;;;;;8.20;5.30;;;;;;;19.86;58.95;98144.22;5062147;28;20060;-52
2022/06/21 08:17:33;;;;;;;12.88;5.38;;;;;;;19.89;59.41;98149.19;5029192;28;20045;-51
2022/06/21 08:20:08;;;;;;;10.43;5.38;;;;;;;19.75;59.75;98157.63;5028996;28;20049;-53
2022/06/21 08:22:47;;;;;;;12.35;5.55;;;;;;;19.56;60.15;98146.34;5029139;28;20508;-50
2022/06/21 08:25:39;;;;;;;;;;;;;;;19.40;60.77;98149.59;5061997;28;20501;-50
2022/06/21 08:28:26;;;;;;;11.18;4.40;;;;;;;19.16;61.58;98154.50;5028010;28;19960;-52
2022/06/21 08:30:55;;;;;;;8.32;4.00;;;;;;;18.93;62.18;98160.13;5062043;28;20067;-52
2022/06/21 08:33:43;;;;;;;11.40;3.97;;;;;;;18.78;62.72;98158.91;5045697;28;20041;-50
2022/06/21 08:36:16;;;;;;;9.38;4.45;;;;;;;18.68;63.01;98157.28;5029199;28;20041;-52
2022/06/21 08:38:58;;;;;;;8.57;4.35;;;;;;;18.64;63.18;98148.81;5029033;28;20045;-47
2022/06/21 08:41:52;;;;;;;9.85;4.78;;;;;;;18.86;63.16;98164.31;5030031;28;20037;-46
2022/06/21 08:44:32;;;;;;;9.10;4.63;;;;;;;18.74;63.87;98152.25;5029976;28;20041;-47
2022/06/21 08:47:30;;;;;;;9.82;4.60;;;;;;;18.66;64.09;98151.31;5010515;28;20050;-49
2022/06/21 08:50:28;;;;;;;12.48;4.88;;;;;;;18.75;64.12;98150.47;5009266;28;20049;-51
2022/06/21 08:53:01;;;;;;;16.77;5.10;;;;;;;18.82;64.20;98156.81;5037542;28;20092;-48
2022/06/21 08:55:39;;;;;;;6.93;4.40;;;;;;;18.98;64.24;98149.16;5018428;28;20071;-47
2022/06/21 08:58:26;;;;;;;9.18;5.53;;;;;;;19.10;64.54;98163.84;5029540;28;20041;-48
2022/06/21 09:01:11;;;;;;;8.20;4.65;;;;;;;19.20;64.41;98159.38;5029498;28;20061;-50
2022/06/21 09:04:06;;;;;;;9.70;5.15;;;;;;;19.40;64.17;98149.59;5061767;28;20128;-49
2022/06/21 09:06:38;;;;;;;12.55;6.20;;;;;;;19.52;63.50;98152.91;5010100;28;20062;-52
2022/06/21 09:09:21;;;;;;;12.25;6.22;;;;;;;19.49;63.02;98150.53;5010248;28;20042;-51
2022/06/21 09:11:56;;;;;;;10.70;5.88;;;;;;;19.49;63.06;98150.53;5010322;28;20498;-51
2022/06/21 09:14:29;;;;;;;8.30;5.47;;;;;;;19.54;62.91;98153.56;5014431;28;20053;-47
2022/06/21 09:17:06;;;;;;;9.90;5.82;;;;;;;19.55;62.65;98147.31;5029697;28;20041;-48
2022/06/21 09:19:58;;;;;;;11.20;5.70;;;;;;;19.57;63.02;98151.47;5045110;28;20428;-51
2022/06/21 09:23:02;;;;;;;8.32;5.53;;;;;;;19.61;63.28;98147.56;5028510;28;20087;-51
2022/06/21 09:25:35;;;;;;;13.52;6.25;;;;;;;19.61;62.83;98152.84;5029413;28;20505;-48
2022/06/21 09:28:10;;;;;;;11.52;6.13;;;;;;;19.59;62.91;98154.78;5029776;28;20072;-49
2022/06/21 09:30:45;;;;;;;12.18;6.20;;;;;;;19.37;62.12;98134.88;5028565;28;20128;-53
2022/06/21 09:33:18;;;;;;;9.20;5.75;;;;;;;19.31;62.59;98150.47;5029614;28;20064;-51
2022/06/21 09:36:18;;;;;;;10.00;6.35;;;;;;;19.16;63.51;98147.44;5028110;28;20425;-49
2022/06/21 09:39:05;;;;;;;12.65;6.10;;;;;;;19.23;63.92;98160.88;5029339;28;20103;-50
2022/06/21 09:41:40;;;;;;;10.65;6.05;;;;;;;19.16;63.98;98154.50;5011864;28;20120;-50
2022/06/21 09:44:36;;;;;;;16.83;6.68;;;;;;;19.11;64.16;98154.94;5029394;28;20087;-50
2022/06/21 09:47:22;;;;;;;12.90;6.18;;;;;;;19.11;63.59;98130.41;5024996;28;20052;-49
2022/06/21 09:50:09;;;;;;;9.63;6.22;;;;;;;19.21;63.32;98144.41;5010981;28;20107;-51
2022/06/21 09:52:43;;;;;;;9.18;6.07;;;;;;;19.28;63.54;98142.81;5029455;28;20068;-48
2022/06/21 09:55:31;;;;;;;15.57;6.72;;;;;;;19.38;64.17;98146.25;5029083;28;20033;-50
2022/06/21 09:58:02;;;;;;;9.95;6.22;;;;;;;19.39;64.54;98147.91;5019061;28;20071;-51
2022/06/21 10:00:31;;;;;;;11.85;6.88;;;;;;;19.28;64.97;98137.56;5010198;28;20513;-53
2022/06/21 10:03:16;;;;;;;8.68;5.47;;;;;;;19.23;64.50;98148.53;5009698;28;20497;-49
2022/06/21 10:05:56;;;;;;;9.40;5.45;;;;;;;19.19;64.04;98148.97;5017233;28;20420;-50
2022/06/21 10:08:52;;;;;;;11.65;5.70;;;;;;;19.09;64.92;98140.28;5028073;28;20061;-53
2022/06/21 10:11:37;;;;;;;12.18;6.30;;;;;;;19.06;66.54;98144.00;5029026;28;20045;-52
2022/06/21 10:14:28;;;;;;;9.65;6.63;;;;;;;18.93;67.64;98143.50;5029450;28;20034;-51
2022/06/21 10:17:06;;;;;;;11.10;6.82;;;;;;;18.72;67.91;98137.59;5033069;28;20078;-52
2022/06/21 10:19:50;;;;;;;8.65;7.30;;;;;;;18.52;69.43;98144.66;5032916;28;20102;-49
2022/06/21 10:22:35;;;;;;;13.60;7.93;;;;;;;18.40;71.64;98143.13;5031995;28;20090;-50
2022/06/21 10:25:25;;;;;;;13.32;7.93;;;;;;;18.29;73.02;98149.34;5014393;28;20053;-52
2022/06/21 10:28:18;;;;;;;10.25;7.90;;;;;;;18.19;73.27;98151.16;5032620;28;20045;-48
2022/06/21 10:30:52;;;;;;;12.50;8.30;;;;;;;18.17;73.74;98153.91;5032388;28;20074;-49
2022/06/21 10:33:38;;;;;;;10.85;7.50;;;;;;;18.15;73.72;98145.34;5032592;28;20056;-50
2022/06/21 10:36:13;;;;;;;11.70;7.82;;;;;;;18.29;73.04;98140.63;5063666;28;20095;-49
2022/06/21 10:39:20;;;;;;;12.82;7.72;;;;;;;18.55;73.12;98153.13;5032171;28;20116;-51
2022/06/21 10:45:23;;;;;;;15.07;8.55;;;;;;;18.81;74.24;98147.25;5032228;28;20429;-52
2022/06/21 10:47:57;;;;;;;16.67;9.13;;;;;;;18.88;74.39;98148.38;5032002;28;20087;-49
2022/06/21 10:50:55;;;;;;;15.10;9.00;;;;;;;18.88;74.10;98149.19;5032382;28;20114;-51
2022/06/21 10:53:59;;;;;;;16.70;8.38;;;;;;;18.96;72.74;98135.31;5027705;28;20485;-47
2022/06/21 11:02:57;;;;;;;14.45;9.25;;;;;;;19.24;69.10;98121.22;5012107;28;20056;-48
2022/06/21 11:05:29;;;;;;;8.02;5.22;;;;;;;19.28;68.02;98116.47;5016928;28;20048;-53
2022/06/21 11:08:29;;;;;;;12.65;6.25;;;;;;;19.20;66.27;98116.38;5031936;28;20038;-48
2022/06/21 11:11:05;;;;;;;12.50;6.25;;;;;;;19.14;66.27;98115.16;5032067;28;20528;-48
2022/06/21 11:13:36;;;;;;;12.65;6.43;;;;;;;19.07;66.22;98111.44;5030635;28;20045;-48
2022/06/21 11:16:16;;;;;;;12.27;6.22;;;;;;;19.04;66.60;98122.25;5030212;28;20044;-49
2022/06/21 11:19:11;;;;;;;15.13;6.32;;;;;;;19.02;67.00;98113.66;5047077;28;20060;-49
2022/06/21 11:22:03;;;;;;;11.93;6.68;;;;;;;18.99;67.04;98127.97;5027095;28;20122;-47
2022/06/21 11:24:35;;;;;;;12.20;6.28;;;;;;;19.04;66.31;98130.16;5031653;28;20124;-50
2022/06/21 11:27:13;;;;;;;9.15;6.00;;;;;;;19.11;65.54;98133.88;5029170;28;20050;-50
2022/06/21 11:30:10;;;;;;;14.40;6.47;;;;;;;19.13;65.95;98131.94;5031393;28;20128;-48
2022/06/21 11:33:06;;;;;;;10.95;6.05;;;;;;;19.14;66.73;98135.41;5063320;28;20133;-48
2022/06/21 11:35:55;;;;;;;10.43;6.22;;;;;;;19.11;66.99;98135.66;5031090;28;20026;-48
2022/06/21 11:38:39;;;;;;;;;;;;;;;19.04;68.01;98141.53;5027713;28;20429;-47
2022/06/21 11:41:12;;;;;;;11.77;6.60;;;;;;;18.98;67.90;98142.09;5031100;28;20388;-49
2022/06/21 11:43:44;;;;;;;13.13;7.28;;;;;;;18.96;67.47;98136.13;5030831;28;20094;-48
2022/06/21 11:46:15;;;;;;;10.65;7.43;;;;;;;18.95;67.42;98141.53;5030827;28;20037;-50
2022/06/21 11:48:44;;;;;;;13.60;7.93;;;;;;;18.92;67.89;98139.19;5031130;28;20433;-54
2022/06/21 11:51:10;;;;;;;16.08;8.32;;;;;;;18.88;67.54;98135.19;5030771;28;20041;-47
2022/06/21 11:54:01;;;;;;;11.70;7.78;;;;;;;18.87;68.29;98137.00;5030589;28;20415;-49
2022/06/21 11:56:43;;;;;;;13.75;7.80;;;;;;;18.89;69.08;98131.59;5029715;28;20581;-50
2022/06/21 11:59:30;;;;;;;13.38;8.10;;;;;;;18.92;68.84;98128.66;5030086;28;20037;-50
2022/06/21 12:02:18;;;;;;;15.30;10.82;;;;;;;18.92;69.06;98124.22;5030951;28;20041;-49
2022/06/21 12:05:06;;;;;;;19.02;11.60;;;;;;;18.91;69.68;98125.19;5029407;28;20049;-48
2022/06/21 12:07:56;;;;;;;15.15;10.18;;;;;;;18.87;70.51;98121.19;5030582;28;20081;-47
2022/06/21 12:11:10;;;;;;;15.02;8.48;;;;;;;18.85;71.15;98117.03;5013063;28;20060;-47
2022/06/21 12:13:55;;;;;;;13.80;8.43;;;;;;;18.80;71.66;98111.38;5010999;28;20050;-49
2022/06/21 12:16:39;;;;;;;13.65;8.80;;;;;;;18.79;72.60;98102.63;5025952;28;20129;-49
2022/06/21 12:19:08;;;;;;;11.32;9.20;;;;;;;18.79;73.06;98104.47;5045686;28;20493;-49
2022/06/21 12:21:41;;;;;;;18.37;9.17;;;;;;;18.76;73.37;98107.38;5011608;28;20052;-47
2022/06/21 12:24:20;;;;;;;15.38;9.50;;;;;;;18.75;73.75;98100.44;4995659;28;20037;-52
2022/06/21 12:26:46;;;;;;;15.38;9.18;;;;;;;18.75;74.32;98089.91;5028521;28;20069;-51
2022/06/21 12:29:16;;;;;;;15.82;9.50;;;;;;;18.65;74.15;98074.13;5030161;28;20777;-50
2022/06/21 12:31:50;;;;;;;13.50;9.02;;;;;;;18.67;73.52;98095.91;5027880;28;20038;-49
2022/06/21 12:34:41;;;;;;;13.60;7.80;;;;;;;18.62;71.39;98095.50;5029325;28;20088;-49